Aérodrome :
LOGIN :

S'inscrire | Disclaimer

   EN    FR    IT 

 










Légende :    VFR   VFR Marginal   IFR   IFR Intensif   IFR Très Intensif
Visi : 
Plafond : 
>= 8 km
>= 3000ft
5 à 8 km
1000 à 3000 ft
1500m à 5 km
500 à 1000 ft
800 à 1500m
200 à 500 ft
< 800m
< 200 ft
Symboles :   Orages  Brouillard  Fortes neiges  Fortes précipitations  Vent > 20 kt
SIGMETs :   Divers  Orages  Givrage  Turbulence  Onde Orograph.  Cendres Volcan.






- Altitude de l'aérodrome : 170 ft
- Code IATA : KRP


EKKA - Karup

DERNIER METAR :
  • 200120Z AUTO 26005KT 9999 OVC087/// 05/02 Q1017

METARs EXPIRÉS :
  • 200050Z AUTO 27009KT 9999 BKN086/// 05/03 Q1016
  • 200020Z AUTO 22007KT 9999 BKN087/// 05/03 Q1016
  • 192350Z AUTO 25008KT 9999 BKN087/// 05/03 Q1016
  • 192320Z AUTO 25007KT 9999 FEW043/// 06/04 Q1015
  • 192250Z AUTO 25007KT 9999 FEW023/// BKN043/// 07/05 Q1015

TAF TAF EKKA
Valide du 20 à 00h jusqu'au 21 à 00h UTC


192322Z 2000/2024 24005KT 9999 SCT030
BECMG 2004/2007 17005KT
BECMG 2013/2016 04005KT
BECMG 2018/2021 4000 -RADZ BR BKN008
TEMPO 2021/2024 1800 BKN003



MET'MAP, la Météo Aéronautique d'un coup d'oeil ! - Copyright ORBIFLY Décembre 2007 - Disclaimer

ORBIFLY MET'MAP TEAM :

Programmation & Développement : Alexandra Zaïnal
Conception & Développement : Baudouin d'Aumeries
Co-Programmation & Développement : Marc-Olivier Méhu
Soutien technique & logistique : Manuel Goepfert

Contact : metmap@orbifly.com




SOURCES & CREDITS :

   NOAA